createdAt,value
2018-05-24T00:00:11.059Z,57.21
2018-05-24T00:01:15.995Z,57.27
2018-05-24T00:02:20.551Z,57.26
2018-05-24T00:03:25.104Z,57.07
2018-05-24T00:04:29.674Z,56.96
2018-05-24T00:05:34.196Z,56.92
2018-05-24T00:06:38.758Z,56.99
2018-05-24T00:07:43.617Z,56.98
2018-05-24T00:08:48.136Z,56.91
2018-05-24T00:09:52.718Z,56.73
2018-05-24T00:10:57.315Z,56.64
2018-05-24T00:12:01.927Z,56.50
2018-05-24T00:13:06.520Z,56.30
2018-05-24T00:14:11.386Z,56.22
2018-05-24T00:15:16.135Z,56.24
2018-05-24T00:16:20.686Z,56.28
2018-05-24T00:17:25.298Z,55.96
2018-05-24T00:18:29.878Z,55.70
2018-05-24T00:19:34.411Z,55.73
2018-05-24T00:20:38.964Z,55.88
2018-05-24T00:21:43.618Z,56.44
2018-05-24T00:22:48.166Z,57.25
2018-05-24T00:23:52.768Z,57.53
2018-05-24T00:24:57.318Z,57.97
2018-05-24T00:26:01.909Z,58.18
2018-05-24T00:27:06.853Z,58.22
2018-05-24T00:28:11.449Z,58.17
2018-05-24T00:29:16.057Z,57.99
2018-05-24T00:30:20.605Z,57.85
2018-05-24T00:31:25.166Z,57.72
2018-05-24T00:32:29.721Z,57.69
2018-05-24T00:33:34.594Z,57.56
2018-05-24T00:34:39.161Z,57.51
2018-05-24T00:35:43.682Z,57.44
2018-05-24T00:36:48.255Z,57.27
2018-05-24T00:37:52.814Z,57.09
2018-05-24T00:38:57.332Z,56.90
2018-05-24T00:40:02.273Z,56.69
2018-05-24T00:41:06.884Z,56.62
2018-05-24T00:42:11.469Z,56.50
2018-05-24T00:43:16.050Z,56.37
2018-05-24T00:44:20.612Z,56.41
2018-05-24T00:45:25.172Z,56.61
2018-05-24T00:46:30.142Z,56.83
2018-05-24T00:47:34.662Z,56.89
2018-05-24T00:48:39.191Z,56.85
2018-05-24T00:49:43.736Z,56.97
2018-05-24T00:50:48.195Z,56.96
2018-05-24T00:51:52.682Z,56.86
2018-05-24T00:52:57.614Z,56.75
2018-05-24T00:54:02.103Z,56.87
2018-05-24T00:55:10.801Z,56.85
2018-05-24T00:56:15.255Z,56.90
2018-05-24T00:57:19.725Z,56.99
2018-05-24T00:58:24.205Z,57.28
2018-05-24T00:59:29.116Z,57.41
2018-05-24T01:00:33.555Z,57.78
2018-05-24T01:01:38.061Z,58.61
2018-05-24T01:02:42.547Z,59.27
2018-05-24T01:03:47.042Z,59.52
2018-05-24T01:04:51.501Z,59.78
2018-05-24T01:05:56.376Z,59.97
2018-05-24T01:07:00.864Z,60.12
2018-05-24T01:08:05.327Z,60.28
2018-05-24T01:09:09.779Z,60.51
2018-05-24T01:10:14.183Z,60.69
2018-05-24T01:11:18.618Z,60.97
2018-05-24T01:12:23.414Z,61.16
2018-05-24T01:13:27.854Z,61.14
2018-05-24T01:14:32.314Z,61.14
2018-05-24T01:15:36.778Z,61.14
2018-05-24T01:16:41.225Z,60.67
2018-05-24T01:17:45.677Z,60.31
2018-05-24T01:18:50.490Z,60.14
2018-05-24T01:19:54.929Z,60.01
2018-05-24T01:20:59.390Z,60.18
2018-05-24T01:22:03.859Z,60.19
2018-05-24T01:23:08.262Z,60.46
2018-05-24T01:24:12.729Z,60.84
2018-05-24T01:25:17.565Z,61.40
2018-05-24T01:26:22.026Z,62.00
2018-05-24T01:27:26.457Z,62.28
2018-05-24T01:28:30.920Z,62.59
2018-05-24T01:29:35.399Z,62.86
2018-05-24T01:30:39.851Z,63.03
2018-05-24T01:31:44.717Z,63.08
2018-05-24T01:32:49.165Z,62.95
2018-05-24T01:33:53.639Z,62.97
2018-05-24T01:34:58.143Z,62.84
2018-05-24T01:36:02.576Z,62.77
2018-05-24T01:37:12.281Z,63.08
2018-05-24T01:38:16.774Z,62.65
2018-05-24T01:39:21.267Z,62.25
2018-05-24T01:40:25.734Z,62.25
2018-05-24T01:41:30.240Z,62.40
2018-05-24T01:42:34.733Z,62.36
2018-05-24T01:43:39.487Z,62.71
2018-05-24T01:44:43.974Z,63.20
2018-05-24T01:45:48.551Z,63.66
2018-05-24T01:46:53.105Z,63.88
2018-05-24T01:47:57.611Z,64.01
2018-05-24T01:49:02.111Z,64.01
2018-05-24T01:50:06.915Z,64.11
2018-05-24T01:51:11.421Z,64.42
2018-05-24T01:52:15.886Z,64.50
2018-05-24T01:53:20.379Z,64.72
2018-05-24T01:54:24.853Z,65.08
2018-05-24T01:55:29.335Z,65.27
2018-05-24T01:56:34.198Z,65.48
2018-05-24T01:57:38.709Z,65.76
2018-05-24T01:58:43.277Z,65.84
2018-05-24T01:59:47.742Z,65.66
2018-05-24T02:00:52.289Z,65.56
2018-05-24T02:01:56.756Z,65.15
2018-05-24T02:03:01.654Z,64.76
2018-05-24T02:04:06.118Z,64.22
2018-05-24T02:05:10.647Z,64.09
2018-05-24T02:06:15.181Z,63.81
2018-05-24T02:07:19.689Z,63.52
2018-05-24T02:08:24.177Z,62.90
2018-05-24T02:09:28.937Z,62.38
2018-05-24T02:10:33.390Z,62.04
2018-05-24T02:11:37.900Z,61.87
2018-05-24T02:12:42.407Z,61.88
2018-05-24T02:13:46.920Z,61.79
2018-05-24T02:14:51.497Z,61.30
2018-05-24T02:15:56.490Z,60.89
2018-05-24T02:17:00.998Z,60.67
2018-05-24T02:18:05.518Z,60.34
2018-05-24T02:19:10.013Z,60.11
2018-05-24T02:20:14.491Z,59.99
2018-05-24T02:21:20.003Z,59.96
2018-05-24T02:22:24.959Z,59.73
2018-05-24T02:23:29.443Z,59.54
2018-05-24T02:24:33.931Z,60.11
2018-05-24T02:25:38.439Z,60.45
2018-05-24T02:26:42.940Z,60.60
2018-05-24T02:27:47.388Z,59.67
2018-05-24T02:28:52.220Z,59.40
2018-05-24T02:29:56.847Z,59.47
2018-05-24T02:31:01.332Z,59.25
2018-05-24T02:32:05.817Z,59.81
2018-05-24T02:33:10.314Z,60.40
2018-05-24T02:34:14.830Z,60.93
2018-05-24T02:35:19.602Z,61.31
2018-05-24T02:36:24.120Z,61.77
2018-05-24T02:37:28.644Z,60.97
2018-05-24T02:38:33.127Z,60.34
2018-05-24T02:39:37.582Z,59.49
2018-05-24T02:40:42.082Z,58.92
2018-05-24T02:41:47.048Z,58.64
2018-05-24T02:42:51.521Z,58.69
2018-05-24T02:43:56.114Z,58.92
2018-05-24T02:45:00.710Z,58.46
2018-05-24T02:46:05.409Z,58.16
2018-05-24T02:47:09.988Z,57.45
2018-05-24T02:48:14.859Z,56.85
2018-05-24T02:49:19.421Z,56.28
2018-05-24T02:50:24.002Z,56.07
2018-05-24T02:51:28.672Z,55.83
2018-05-24T02:52:33.193Z,56.09
2018-05-24T02:53:37.805Z,56.25
2018-05-24T02:54:42.670Z,56.33
2018-05-24T02:55:47.240Z,56.32
2018-05-24T02:56:51.856Z,56.03
2018-05-24T02:57:56.429Z,56.13
2018-05-24T02:59:01.073Z,56.40
2018-05-24T03:00:05.660Z,56.07
2018-05-24T03:01:10.700Z,56.17
2018-05-24T03:02:15.272Z,56.23
2018-05-24T03:03:19.843Z,55.84
2018-05-24T03:04:24.369Z,55.47
2018-05-24T03:05:29.021Z,55.70
2018-05-24T03:06:33.617Z,55.73
2018-05-24T03:07:38.453Z,55.71
2018-05-24T03:08:43.034Z,55.50
2018-05-24T03:09:47.586Z,55.44
2018-05-24T03:10:52.180Z,55.58
2018-05-24T03:11:57.064Z,55.68
2018-05-24T03:13:01.679Z,55.75
2018-05-24T03:14:06.652Z,55.56
2018-05-24T03:15:11.276Z,55.52
2018-05-24T03:16:15.815Z,55.36
2018-05-24T03:17:20.342Z,55.33
2018-05-24T03:18:24.962Z,55.16
2018-05-24T03:19:29.498Z,55.13
2018-05-24T03:20:34.356Z,55.06
2018-05-24T03:21:38.933Z,55.00
2018-05-24T03:22:43.385Z,54.85
2018-05-24T03:23:47.896Z,54.71
2018-05-24T03:24:52.345Z,54.63
2018-05-24T03:25:56.774Z,54.49
2018-05-24T03:27:01.557Z,54.55
2018-05-24T03:28:06.042Z,54.50
2018-05-24T03:29:10.513Z,54.62
2018-05-24T03:30:14.958Z,54.63
2018-05-24T03:31:19.378Z,54.67
2018-05-24T03:32:23.851Z,54.66
2018-05-24T03:33:28.949Z,54.63
2018-05-24T03:34:33.498Z,54.74
2018-05-24T03:35:37.946Z,54.79
2018-05-24T03:36:42.411Z,54.74
2018-05-24T03:37:46.865Z,54.73
2018-05-24T03:38:51.341Z,54.70
2018-05-24T03:39:56.194Z,54.73
2018-05-24T03:41:00.790Z,54.81
2018-05-24T03:42:05.299Z,54.78
2018-05-24T03:43:09.770Z,54.80
2018-05-24T03:44:14.340Z,54.73
2018-05-24T03:45:18.893Z,54.67
2018-05-24T03:46:23.845Z,54.72
2018-05-24T03:47:29.210Z,54.78
2018-05-24T03:48:35.541Z,54.96
2018-05-24T03:49:40.121Z,54.96
2018-05-24T03:50:45.040Z,55.05
2018-05-24T03:51:49.630Z,55.14
2018-05-24T03:52:54.930Z,55.32
2018-05-24T03:53:59.486Z,55.49
2018-05-24T03:55:04.053Z,55.66
2018-05-24T03:56:08.674Z,55.97
2018-05-24T03:57:13.210Z,56.32
2018-05-24T03:58:17.778Z,56.47
2018-05-24T03:59:25.689Z,56.74
2018-05-24T04:02:37.286Z,57.07
2018-05-24T04:03:48.683Z,57.93
2018-05-24T04:04:53.705Z,58.12
2018-05-24T04:05:58.305Z,58.57
2018-05-24T04:07:04.963Z,58.96
2018-05-24T04:08:09.638Z,59.41
2018-05-24T04:09:14.301Z,59.74
2018-05-24T04:10:18.877Z,59.94
2018-05-24T04:11:23.407Z,60.05
2018-05-24T04:12:27.978Z,60.63
2018-05-24T04:13:32.488Z,61.22
2018-05-24T04:14:37.022Z,61.85
2018-05-24T04:15:41.546Z,62.46
2018-05-24T04:16:46.308Z,62.89
2018-05-24T04:17:50.806Z,63.22
2018-05-24T04:18:55.229Z,63.97
2018-05-24T04:19:59.684Z,64.58
2018-05-24T04:21:04.121Z,65.29
2018-05-24T04:22:08.573Z,65.75
2018-05-24T04:23:13.373Z,66.21
2018-05-24T04:24:17.831Z,66.46
2018-05-24T04:25:22.330Z,66.89
2018-05-24T04:26:26.774Z,67.10
2018-05-24T04:27:31.208Z,67.34
2018-05-24T04:28:35.684Z,67.59
2018-05-24T04:29:40.217Z,67.84
2018-05-24T04:30:44.683Z,68.10
2018-05-24T04:31:49.129Z,68.34
2018-05-24T04:32:53.602Z,68.79
2018-05-24T04:33:58.017Z,68.90
2018-05-24T04:35:02.778Z,69.26
2018-05-24T04:36:07.245Z,69.69
2018-05-24T04:37:11.713Z,69.69
2018-05-24T04:38:16.180Z,70.04
2018-05-24T04:39:20.622Z,70.27
2018-05-24T04:40:25.062Z,70.64
2018-05-24T04:41:29.824Z,70.94
2018-05-24T04:42:34.290Z,71.24
2018-05-24T04:43:38.703Z,71.51
2018-05-24T04:44:43.179Z,71.79
2018-05-24T04:45:47.645Z,72.10
2018-05-24T04:46:56.315Z,72.13
2018-05-24T04:48:01.074Z,72.19
2018-05-24T04:49:05.579Z,72.51
2018-05-24T04:50:10.053Z,72.62
2018-05-24T04:51:14.490Z,72.74
2018-05-24T04:52:18.987Z,72.98
2018-05-24T04:53:23.502Z,73.20
2018-05-24T04:54:28.531Z,73.47
2018-05-24T04:55:33.002Z,73.50
2018-05-24T04:56:37.529Z,73.56
2018-05-24T04:57:41.989Z,73.68
2018-05-24T04:58:46.490Z,73.90
2018-05-24T04:59:50.988Z,74.27
2018-05-24T05:00:55.847Z,74.70
2018-05-24T05:02:00.640Z,75.01
2018-05-24T05:03:05.096Z,75.40
2018-05-24T05:04:09.653Z,75.71
2018-05-24T05:05:14.108Z,75.99
2018-05-24T05:06:19.310Z,76.34
2018-05-24T05:07:23.801Z,76.57
2018-05-24T05:08:28.268Z,76.92
2018-05-24T05:09:32.734Z,77.30
2018-05-24T05:10:37.187Z,77.50
2018-05-24T05:11:41.639Z,77.67
2018-05-24T05:12:46.439Z,77.89
2018-05-24T05:13:50.892Z,78.11
2018-05-24T05:14:55.407Z,78.34
2018-05-24T05:15:59.893Z,78.62
2018-05-24T05:17:04.994Z,78.79
2018-05-24T05:18:09.478Z,78.89
2018-05-24T05:19:14.362Z,79.02
2018-05-24T05:20:18.786Z,79.33
2018-05-24T05:21:23.230Z,79.59
2018-05-24T05:22:27.791Z,79.68
2018-05-24T05:23:32.315Z,79.72
2018-05-24T05:24:37.664Z,79.78
2018-05-24T05:25:43.298Z,79.98
2018-05-24T05:26:47.857Z,80.14
2018-05-24T05:27:52.358Z,80.16
2018-05-24T05:28:56.815Z,80.13
2018-05-24T05:30:01.359Z,80.20
2018-05-24T05:31:05.853Z,80.50
2018-05-24T05:32:10.701Z,80.63
2018-05-24T05:33:15.278Z,80.69
2018-05-24T05:34:19.875Z,80.68
2018-05-24T05:35:24.467Z,80.77
2018-05-24T05:36:29.096Z,80.94
2018-05-24T05:37:33.695Z,80.79
2018-05-24T05:38:38.560Z,80.55
2018-05-24T05:39:43.131Z,80.46
2018-05-24T05:40:48.538Z,80.42
2018-05-24T05:41:53.118Z,80.37
2018-05-24T05:42:57.679Z,80.26
2018-05-24T05:44:02.196Z,80.51
2018-05-24T05:45:06.999Z,80.97
2018-05-24T05:46:11.567Z,81.21
2018-05-24T05:47:16.171Z,81.21
2018-05-24T05:48:20.903Z,81.24
2018-05-24T05:49:25.513Z,81.40
2018-05-24T05:50:30.072Z,81.67
2018-05-24T05:51:35.245Z,81.77
2018-05-24T05:52:39.822Z,81.69
2018-05-24T05:53:44.388Z,81.77
2018-05-24T05:54:48.953Z,81.82
2018-05-24T05:55:53.538Z,81.83
2018-05-24T05:56:58.089Z,81.76
2018-05-24T05:58:02.959Z,81.72
2018-05-24T05:59:07.541Z,81.55
2018-05-24T06:00:12.178Z,81.46
2018-05-24T06:01:16.774Z,81.60
2018-05-24T06:02:21.347Z,81.79
2018-05-24T06:03:25.946Z,81.88
2018-05-24T06:04:30.868Z,81.88
2018-05-24T06:05:35.452Z,82.10
2018-05-24T06:06:39.908Z,82.35
2018-05-24T06:07:44.362Z,82.52
2018-05-24T06:08:48.880Z,82.61
2018-05-24T06:09:53.313Z,82.40
2018-05-24T06:10:57.774Z,82.19
2018-05-24T06:12:02.293Z,82.57
2018-05-24T06:13:06.805Z,82.90
2018-05-24T06:14:11.414Z,83.16
2018-05-24T06:15:15.961Z,83.32
2018-05-24T06:16:20.924Z,83.36
2018-05-24T06:17:25.544Z,83.35
2018-05-24T06:18:30.154Z,83.11
2018-05-24T06:19:34.619Z,82.95
2018-05-24T06:20:39.176Z,82.81
2018-05-24T06:21:43.862Z,82.83
2018-05-24T06:22:48.765Z,83.04
2018-05-24T06:23:53.237Z,83.14
2018-05-24T06:24:57.693Z,83.07
2018-05-24T06:26:02.388Z,83.13
2018-05-24T06:27:06.861Z,83.09
2018-05-24T06:28:11.345Z,83.09
2018-05-24T06:29:16.225Z,83.12
2018-05-24T06:30:20.756Z,82.97
2018-05-24T06:31:25.217Z,82.92
2018-05-24T06:32:29.759Z,82.91
2018-05-24T06:33:34.200Z,82.86
2018-05-24T06:34:38.680Z,83.04
2018-05-24T06:35:43.563Z,83.27
2018-05-24T06:36:48.138Z,83.16
2018-05-24T06:37:52.688Z,83.11
2018-05-24T06:38:57.214Z,83.09
2018-05-24T06:40:01.710Z,82.99
2018-05-24T06:41:06.229Z,83.04
2018-05-24T06:42:11.313Z,83.02
2018-05-24T06:43:15.936Z,83.02
2018-05-24T06:44:20.434Z,82.92
2018-05-24T06:45:24.949Z,82.82
2018-05-24T06:46:29.555Z,82.62
2018-05-24T06:47:34.206Z,82.46
2018-05-24T06:48:39.286Z,82.30
2018-05-24T06:49:44.526Z,82.50
2018-05-24T06:50:50.320Z,82.29
2018-05-24T06:51:58.233Z,82.20
2018-05-24T06:53:02.869Z,82.17
2018-05-24T06:54:07.758Z,82.19
2018-05-24T06:55:12.840Z,82.23
2018-05-24T06:56:17.534Z,82.37
2018-05-24T06:57:22.192Z,82.23
2018-05-24T06:58:26.802Z,81.70
2018-05-24T06:59:31.401Z,81.48
2018-05-24T07:00:36.769Z,81.40
2018-05-24T07:01:42.318Z,81.35
2018-05-24T07:02:46.976Z,81.15
2018-05-24T07:03:52.245Z,81.04
2018-05-24T07:04:57.123Z,80.98
2018-05-24T07:06:01.843Z,80.80
2018-05-24T07:07:06.298Z,80.73
2018-05-24T07:08:11.175Z,80.73
2018-05-24T07:09:15.763Z,80.58
2018-05-24T07:10:20.639Z,80.49
2018-05-24T07:11:25.182Z,80.62
2018-05-24T07:12:29.793Z,80.66
2018-05-24T07:13:34.396Z,80.39
2018-05-24T07:14:39.416Z,79.77
2018-05-24T07:15:44.040Z,79.29
2018-05-24T07:16:48.642Z,79.07
2018-05-24T07:17:53.219Z,78.95
2018-05-24T07:18:57.861Z,78.63
2018-05-24T07:20:02.436Z,78.34
2018-05-24T07:21:07.445Z,78.17
2018-05-24T07:22:12.056Z,78.24
2018-05-24T07:23:16.581Z,77.99
2018-05-24T07:24:21.153Z,77.83
2018-05-24T07:25:25.679Z,77.77
2018-05-24T07:26:30.244Z,77.41
2018-05-24T07:27:34.860Z,77.17
2018-05-24T07:28:39.572Z,77.09
2018-05-24T07:29:44.178Z,76.98
2018-05-24T07:30:48.676Z,76.92
2018-05-24T07:31:53.151Z,76.63
2018-05-24T07:32:57.631Z,76.16
2018-05-24T07:34:02.441Z,76.00
2018-05-24T07:35:07.249Z,76.42
2018-05-24T07:36:11.891Z,76.44
2018-05-24T07:37:16.515Z,77.36
2018-05-24T07:38:21.024Z,77.58
2018-05-24T07:39:25.469Z,77.57
2018-05-24T07:40:30.416Z,77.58
2018-05-24T07:41:36.303Z,77.18
2018-05-24T07:42:41.559Z,77.05
2018-05-24T07:43:48.807Z,77.40
2018-05-24T07:44:54.638Z,77.56
2018-05-24T07:45:59.856Z,77.06
2018-05-24T07:47:06.092Z,76.98
2018-05-24T07:48:12.334Z,77.02
2018-05-24T07:49:17.613Z,77.14
2018-05-24T07:50:22.730Z,77.05
2018-05-24T07:51:28.428Z,77.08
2018-05-24T07:52:34.898Z,76.85
2018-05-24T07:53:40.048Z,76.81
2018-05-24T07:54:46.223Z,77.05
2018-05-24T07:55:52.018Z,76.55
2018-05-24T07:56:57.331Z,76.06
2018-05-24T07:58:02.404Z,75.83
2018-05-24T07:59:08.498Z,75.67
2018-05-24T08:00:13.999Z,75.68
2018-05-24T08:01:18.669Z,75.64
2018-05-24T08:02:25.227Z,75.54
2018-05-24T08:03:30.215Z,75.20
2018-05-24T08:04:35.478Z,75.33
2018-05-24T08:05:41.966Z,74.81
2018-05-24T08:06:47.995Z,74.57
2018-05-24T08:07:53.315Z,74.36
2018-05-24T08:08:58.421Z,74.08
2018-05-24T08:10:03.742Z,73.81
2018-05-24T08:11:10.347Z,74.20
2018-05-24T08:12:17.101Z,73.95
2018-05-24T08:13:21.901Z,73.63
2018-05-24T08:14:26.975Z,73.68
2018-05-24T08:15:33.074Z,73.90
2018-05-24T08:16:38.119Z,74.11
2018-05-24T08:17:44.178Z,73.90
2018-05-24T08:18:49.810Z,73.64
2018-05-24T08:19:56.330Z,73.83
2018-05-24T08:21:01.919Z,74.23
2018-05-24T08:22:07.426Z,73.85
2018-05-24T08:23:13.180Z,73.98
2018-05-24T08:24:18.706Z,74.08
2018-05-24T08:25:24.694Z,74.16
2018-05-24T08:26:32.270Z,74.40
2018-05-24T08:27:36.983Z,74.55
2018-05-24T08:28:41.883Z,74.48
2018-05-24T08:29:46.698Z,74.35
2018-05-24T08:30:52.741Z,74.50
2018-05-24T08:31:58.492Z,74.62
2018-05-24T08:33:04.169Z,74.68
2018-05-24T08:34:09.153Z,74.30
2018-05-24T08:35:14.675Z,74.33
2018-05-24T08:36:23.220Z,74.58
2018-05-24T08:37:28.184Z,74.71
2018-05-24T08:38:32.970Z,74.58
2018-05-24T08:39:37.634Z,74.74
2018-05-24T08:40:42.219Z,74.97
2018-05-24T08:41:46.786Z,74.94
2018-05-24T08:42:51.553Z,75.06
2018-05-24T08:43:56.604Z,75.33
2018-05-24T08:45:01.170Z,75.17
2018-05-24T08:46:05.852Z,75.30
2018-05-24T08:47:10.572Z,75.12
2018-05-24T08:48:15.109Z,75.05
2018-05-24T08:49:19.691Z,74.87
2018-05-24T08:50:24.718Z,74.93
2018-05-24T08:51:29.720Z,74.83
2018-05-24T08:52:34.370Z,74.67
2018-05-24T08:53:39.084Z,74.57
2018-05-24T08:54:43.711Z,74.54
2018-05-24T08:55:48.415Z,74.66
2018-05-24T08:56:53.495Z,74.78
2018-05-24T08:57:58.216Z,74.58
2018-05-24T08:59:02.850Z,74.56
2018-05-24T09:00:08.158Z,74.33
2018-05-24T09:01:13.129Z,74.23
2018-05-24T09:02:17.763Z,74.50
2018-05-24T09:03:22.797Z,74.68
2018-05-24T09:04:27.470Z,74.75
2018-05-24T09:05:32.098Z,74.88
2018-05-24T09:06:36.709Z,74.81
2018-05-24T09:07:41.374Z,74.63
2018-05-24T09:08:46.071Z,74.67
2018-05-24T09:09:51.057Z,75.11
2018-05-24T09:10:55.689Z,75.20
2018-05-24T09:12:00.241Z,75.10
2018-05-24T09:13:04.759Z,75.26
2018-05-24T09:14:10.332Z,75.06
2018-05-24T09:15:15.061Z,75.27
2018-05-24T09:16:20.672Z,75.40
2018-05-24T09:17:26.121Z,75.61
2018-05-24T09:18:31.107Z,75.88
2018-05-24T09:19:37.358Z,75.79
2018-05-24T09:20:42.848Z,75.86
2018-05-24T09:21:47.844Z,75.78
2018-05-24T09:22:53.832Z,75.88
2018-05-24T09:23:58.831Z,75.85
2018-05-24T09:25:04.553Z,75.97
2018-05-24T09:26:09.898Z,75.81
2018-05-24T09:27:15.010Z,75.87
2018-05-24T09:28:21.338Z,75.60
2018-05-24T09:29:27.088Z,75.80
2018-05-24T09:30:32.183Z,75.76
2018-05-24T09:31:37.559Z,75.81
2018-05-24T09:32:43.344Z,75.88
2018-05-24T09:33:48.641Z,75.80
2018-05-24T09:34:54.229Z,75.76
2018-05-24T09:35:59.785Z,75.80
2018-05-24T09:37:05.078Z,75.82
2018-05-24T09:38:10.449Z,75.77
2018-05-24T09:39:16.684Z,75.44
2018-05-24T09:40:22.253Z,75.30
2018-05-24T09:41:27.572Z,75.38
2018-05-24T09:42:33.422Z,75.29
2018-05-24T09:43:38.482Z,75.23
2018-05-24T09:44:43.801Z,74.92
2018-05-24T09:45:50.567Z,74.87
2018-05-24T09:46:56.162Z,74.96
2018-05-24T09:48:02.057Z,74.96
2018-05-24T09:49:07.415Z,74.60
2018-05-24T09:50:12.729Z,74.41
2018-05-24T09:51:18.197Z,74.45
2018-05-24T09:52:24.309Z,74.44
2018-05-24T09:53:29.857Z,74.68
2018-05-24T09:54:35.302Z,74.08
2018-05-24T09:55:40.503Z,74.12
2018-05-24T09:56:47.073Z,74.20
2018-05-24T09:57:52.574Z,74.06
2018-05-24T09:58:58.311Z,73.71
2018-05-24T10:00:03.342Z,73.51
2018-05-24T10:01:07.970Z,73.46
2018-05-24T10:02:13.106Z,73.17
2018-05-24T10:03:17.726Z,72.83
2018-05-24T10:04:22.678Z,72.65
2018-05-24T10:05:27.486Z,72.39
2018-05-24T10:06:32.474Z,71.92
2018-05-24T10:07:37.794Z,72.07
2018-05-24T10:08:43.822Z,72.02
2018-05-24T10:09:50.042Z,71.71
2018-05-24T10:10:55.096Z,71.61
2018-05-24T10:12:00.124Z,71.95
2018-05-24T10:13:05.842Z,71.86
2018-05-24T10:14:11.089Z,71.51
2018-05-24T10:15:17.090Z,71.64
2018-05-24T10:16:21.860Z,71.76
2018-05-24T10:17:26.933Z,71.86
2018-05-24T10:18:32.854Z,71.96
2018-05-24T10:19:38.369Z,71.89
2018-05-24T10:20:44.338Z,71.76
2018-05-24T10:21:51.115Z,71.93
2018-05-24T10:22:56.951Z,71.98
2018-05-24T10:24:02.088Z,72.09
2018-05-24T10:25:06.910Z,72.02
2018-05-24T10:26:14.283Z,71.92
2018-05-24T10:27:19.152Z,71.87
2018-05-24T10:28:24.552Z,71.84
2018-05-24T10:29:29.540Z,71.99
2018-05-24T10:30:34.360Z,71.91
2018-05-24T10:31:39.336Z,72.06
2018-05-24T10:32:45.676Z,71.85
2018-05-24T10:33:51.016Z,71.88
2018-05-24T10:34:57.944Z,71.62
2018-05-24T10:36:02.947Z,72.06
2018-05-24T10:37:08.853Z,72.00
2018-05-24T10:38:13.501Z,72.21
2018-05-24T10:39:18.524Z,72.20
2018-05-24T10:40:23.750Z,72.39
2018-05-24T10:41:29.267Z,72.44
2018-05-24T10:42:35.424Z,72.51
2018-05-24T10:43:41.594Z,72.43
2018-05-24T10:44:46.584Z,72.39
2018-05-24T10:45:51.546Z,72.45
2018-05-24T10:46:59.023Z,72.35
2018-05-24T10:48:05.244Z,72.39
2018-05-24T10:49:10.581Z,72.47
2018-05-24T10:50:16.570Z,72.33
2018-05-24T10:51:21.468Z,72.32
2018-05-24T10:52:27.134Z,72.40
2018-05-24T10:53:32.831Z,72.36
2018-05-24T10:54:37.936Z,72.45
2018-05-24T10:55:42.891Z,72.42
2018-05-24T10:56:48.730Z,72.36
2018-05-24T10:57:54.361Z,72.19
2018-05-24T10:58:59.310Z,72.23
2018-05-24T11:00:04.469Z,72.24
2018-05-24T11:01:10.857Z,72.43
2018-05-24T11:02:17.244Z,72.40
2018-05-24T11:03:22.228Z,72.21
2018-05-24T11:04:28.154Z,72.15
2018-05-24T11:05:33.629Z,72.21
2018-05-24T11:06:41.231Z,72.37
2018-05-24T11:07:46.276Z,72.33
2018-05-24T11:08:51.139Z,72.54
2018-05-24T11:09:56.673Z,72.61
2018-05-24T11:11:01.616Z,72.94
2018-05-24T11:12:07.443Z,72.94
2018-05-24T11:13:12.558Z,72.94
2018-05-24T11:14:18.217Z,72.85
2018-05-24T11:15:23.862Z,72.88
2018-05-24T11:16:29.561Z,73.10
2018-05-24T11:17:34.934Z,73.15
2018-05-24T11:18:40.390Z,73.21
2018-05-24T11:19:45.914Z,73.29
2018-05-24T11:20:51.210Z,73.49
2018-05-24T11:21:56.104Z,73.82
2018-05-24T11:23:01.302Z,73.88
2018-05-24T11:24:08.941Z,74.02
2018-05-24T11:25:14.794Z,74.09
2018-05-24T11:26:19.681Z,74.04
2018-05-24T11:28:28.900Z,74.26
2018-05-24T11:29:35.189Z,74.24
2018-05-24T11:30:40.347Z,74.20
2018-05-24T11:31:45.720Z,74.14
2018-05-24T11:32:51.151Z,74.17
2018-05-24T11:33:57.497Z,74.47
2018-05-24T11:35:02.469Z,74.63
2018-05-24T11:36:07.484Z,74.82
2018-05-24T11:37:13.862Z,74.81
2018-05-24T11:38:21.983Z,74.85
2018-05-24T11:39:26.793Z,74.87
2018-05-24T11:40:31.418Z,74.88
2018-05-24T11:41:37.130Z,74.83
2018-05-24T11:42:41.813Z,74.75
2018-05-24T11:43:46.998Z,74.56
2018-05-24T11:44:52.508Z,74.64
2018-05-24T11:45:58.446Z,74.64
2018-05-24T11:47:03.322Z,74.78
2018-05-24T11:48:09.426Z,74.98
2018-05-24T11:49:14.282Z,75.02
2018-05-24T11:50:19.672Z,75.15
2018-05-24T11:51:25.204Z,75.11
2018-05-24T11:52:30.196Z,75.18
2018-05-24T11:53:36.255Z,75.03
2018-05-24T11:54:42.806Z,74.98
2018-05-24T11:55:49.099Z,75.17
2018-05-24T11:56:54.943Z,75.36
2018-05-24T11:58:01.161Z,75.55
2018-05-24T11:59:06.347Z,75.61
2018-05-24T12:00:12.436Z,75.60
2018-05-24T12:01:18.798Z,75.42
2018-05-24T12:02:24.367Z,75.38
2018-05-24T12:03:30.115Z,75.06
2018-05-24T12:04:35.456Z,74.92
2018-05-24T12:05:40.307Z,74.94
2018-05-24T12:06:45.363Z,74.55
2018-05-24T12:07:50.916Z,74.46
2018-05-24T12:08:58.437Z,74.40
2018-05-24T12:10:03.695Z,74.18
2018-05-24T12:11:08.866Z,74.09
2018-05-24T12:12:13.604Z,73.82
2018-05-24T12:13:18.251Z,73.69
2018-05-24T12:14:22.892Z,73.89
2018-05-24T12:15:27.539Z,73.93
2018-05-24T12:16:32.594Z,73.96
2018-05-24T12:17:37.648Z,73.91
2018-05-24T12:19:46.801Z,74.24
2018-05-24T12:20:51.874Z,74.42
2018-05-24T12:21:56.783Z,74.27
2018-05-24T12:23:02.372Z,74.41
2018-05-24T12:24:07.651Z,74.62
2018-05-24T12:25:13.334Z,74.79
2018-05-24T12:26:18.748Z,74.68
2018-05-24T12:27:24.637Z,74.69
2018-05-24T12:28:30.791Z,74.96
2018-05-24T12:29:35.561Z,75.20
2018-05-24T12:30:41.087Z,75.12
2018-05-24T12:31:46.068Z,75.08
2018-05-24T12:32:51.114Z,74.95
2018-05-24T12:33:56.169Z,74.83
2018-05-24T12:35:00.862Z,74.89
2018-05-24T12:36:05.723Z,75.06
2018-05-24T12:37:10.924Z,75.19
2018-05-24T12:38:15.823Z,75.17
2018-05-24T12:39:20.706Z,75.21
2018-05-24T12:40:25.405Z,75.43
2018-05-24T12:41:30.078Z,75.44
2018-05-24T12:42:34.642Z,75.54
2018-05-24T12:43:39.675Z,75.72
2018-05-24T12:44:44.359Z,75.82
2018-05-24T12:45:48.993Z,75.96
2018-05-24T12:46:54.603Z,76.14
2018-05-24T12:47:59.557Z,76.24
2018-05-24T12:49:05.233Z,76.43
2018-05-24T12:50:11.378Z,76.50
2018-05-24T12:51:16.181Z,76.67
2018-05-24T12:52:21.230Z,76.85
2018-05-24T12:53:25.771Z,77.02
2018-05-24T12:54:30.450Z,77.09
2018-05-24T12:55:35.093Z,77.33
2018-05-24T12:56:41.291Z,77.42
2018-05-24T12:57:45.985Z,77.48
2018-05-24T12:58:51.729Z,77.81
2018-05-24T12:59:56.873Z,77.77
2018-05-24T13:01:01.706Z,77.76
2018-05-24T13:02:07.509Z,77.72
2018-05-24T13:03:13.486Z,77.82
2018-05-24T13:04:18.379Z,77.76
2018-05-24T13:05:23.516Z,77.74
2018-05-24T13:06:28.491Z,77.67
2018-05-24T13:07:33.577Z,77.65
2018-05-24T13:08:38.494Z,77.48
2018-05-24T13:09:44.752Z,77.41
2018-05-24T13:10:51.541Z,77.51
2018-05-24T13:11:57.757Z,77.53
2018-05-24T13:13:02.739Z,77.22
2018-05-24T13:14:07.638Z,76.90
2018-05-24T13:15:13.446Z,76.78
2018-05-24T13:16:18.968Z,77.04
2018-05-24T13:17:23.658Z,76.86
2018-05-24T13:18:28.872Z,76.97
2018-05-24T13:19:34.037Z,76.96
2018-05-24T13:20:41.620Z,77.16
2018-05-24T13:21:46.385Z,77.52
2018-05-24T13:22:51.739Z,77.47
2018-05-24T13:23:57.122Z,77.70
2018-05-24T13:25:03.924Z,77.69
2018-05-24T13:26:08.585Z,77.68
2018-05-24T13:27:13.550Z,77.74
2018-05-24T13:28:19.391Z,77.75
2018-05-24T13:29:24.509Z,77.86
2018-05-24T13:30:30.646Z,77.81
2018-05-24T13:31:35.596Z,77.96
2018-05-24T13:32:40.596Z,77.81
2018-05-24T13:33:45.622Z,77.64
2018-05-24T13:34:51.800Z,77.58
2018-05-24T13:35:59.526Z,77.48
2018-05-24T13:37:07.349Z,77.37
2018-05-24T13:38:12.365Z,77.40
2018-05-24T13:39:17.074Z,77.30
2018-05-24T13:40:22.705Z,77.14
2018-05-24T13:41:27.650Z,77.20
2018-05-24T13:42:33.599Z,77.36
2018-05-24T13:43:40.376Z,77.35
2018-05-24T13:44:45.138Z,77.40
2018-05-24T13:45:50.743Z,77.39
2018-05-24T13:46:56.467Z,77.22
2018-05-24T13:48:02.184Z,77.07
2018-05-24T13:49:06.920Z,77.07
2018-05-24T13:50:12.575Z,77.13
2018-05-24T13:51:17.464Z,77.16
2018-05-24T13:52:22.578Z,77.33
2018-05-24T13:53:27.738Z,77.52
2018-05-24T13:54:34.219Z,77.57
2018-05-24T13:55:39.436Z,77.71
2018-05-24T13:56:44.922Z,77.83
2018-05-24T13:57:51.449Z,77.87
2018-05-24T13:58:57.684Z,77.90
2018-05-24T14:00:02.659Z,78.11
2018-05-24T14:01:08.520Z,78.38